sensor_id;sensor_type;location;lat;lon;timestamp;P1;durP1;ratioP1;P2;durP2;ratioP2
6531;SDS011;3299;42.004;24.868;2024-03-08T00:00:29;36.47;;;22.15;;
6531;SDS011;3299;42.004;24.868;2024-03-08T00:02:57;41.97;;;24.33;;
6531;SDS011;3299;42.004;24.868;2024-03-08T00:05:22;42.13;;;23.10;;
6531;SDS011;3299;42.004;24.868;2024-03-08T00:07:48;39.38;;;23.67;;
6531;SDS011;3299;42.004;24.868;2024-03-08T00:10:14;44.28;;;24.38;;
6531;SDS011;3299;42.004;24.868;2024-03-08T00:12:40;48.30;;;24.75;;
6531;SDS011;3299;42.004;24.868;2024-03-08T00:15:09;44.55;;;24.35;;
6531;SDS011;3299;42.004;24.868;2024-03-08T00:17:36;43.72;;;25.25;;
6531;SDS011;3299;42.004;24.868;2024-03-08T00:20:01;47.08;;;24.80;;
6531;SDS011;3299;42.004;24.868;2024-03-08T00:22:33;46.63;;;24.45;;
6531;SDS011;3299;42.004;24.868;2024-03-08T00:24:59;44.17;;;23.65;;
6531;SDS011;3299;42.004;24.868;2024-03-08T00:27:24;41.33;;;24.50;;
6531;SDS011;3299;42.004;24.868;2024-03-08T00:29:50;42.30;;;24.23;;
6531;SDS011;3299;42.004;24.868;2024-03-08T00:32:15;39.03;;;21.98;;
6531;SDS011;3299;42.004;24.868;2024-03-08T00:34:42;38.83;;;23.00;;
6531;SDS011;3299;42.004;24.868;2024-03-08T00:37:07;37.25;;;22.33;;
6531;SDS011;3299;42.004;24.868;2024-03-08T00:39:33;43.17;;;22.45;;
6531;SDS011;3299;42.004;24.868;2024-03-08T00:41:59;41.50;;;21.98;;
6531;SDS011;3299;42.004;24.868;2024-03-08T00:44:24;49.42;;;23.77;;
6531;SDS011;3299;42.004;24.868;2024-03-08T00:46:52;39.70;;;22.45;;
6531;SDS011;3299;42.004;24.868;2024-03-08T00:49:18;40.17;;;24.58;;
6531;SDS011;3299;42.004;24.868;2024-03-08T00:51:43;39.03;;;22.17;;
6531;SDS011;3299;42.004;24.868;2024-03-08T00:54:08;36.70;;;21.27;;
6531;SDS011;3299;42.004;24.868;2024-03-08T00:56:34;37.35;;;21.60;;
6531;SDS011;3299;42.004;24.868;2024-03-08T00:59:00;35.83;;;21.10;;
6531;SDS011;3299;42.004;24.868;2024-03-08T01:01:27;36.88;;;21.08;;
6531;SDS011;3299;42.004;24.868;2024-03-08T01:03:53;32.20;;;20.20;;
6531;SDS011;3299;42.004;24.868;2024-03-08T01:06:18;39.20;;;21.75;;
6531;SDS011;3299;42.004;24.868;2024-03-08T01:08:44;38.03;;;21.42;;
6531;SDS011;3299;42.004;24.868;2024-03-08T01:11:10;32.17;;;20.55;;
6531;SDS011;3299;42.004;24.868;2024-03-08T01:13:36;32.50;;;20.95;;
6531;SDS011;3299;42.004;24.868;2024-03-08T01:16:01;35.63;;;20.98;;
6531;SDS011;3299;42.004;24.868;2024-03-08T01:18:28;33.20;;;21.08;;
6531;SDS011;3299;42.004;24.868;2024-03-08T01:20:54;33.90;;;21.17;;
6531;SDS011;3299;42.004;24.868;2024-03-08T01:23:19;34.55;;;20.75;;
6531;SDS011;3299;42.004;24.868;2024-03-08T01:25:45;43.03;;;23.08;;
6531;SDS011;3299;42.004;24.868;2024-03-08T01:28:10;34.90;;;21.05;;
6531;SDS011;3299;42.004;24.868;2024-03-08T01:30:35;33.15;;;22.27;;
6531;SDS011;3299;42.004;24.868;2024-03-08T01:33:02;38.55;;;22.13;;
6531;SDS011;3299;42.004;24.868;2024-03-08T01:35:28;35.05;;;21.15;;
6531;SDS011;3299;42.004;24.868;2024-03-08T01:37:53;36.35;;;22.40;;
6531;SDS011;3299;42.004;24.868;2024-03-08T01:40:20;38.83;;;20.77;;
6531;SDS011;3299;42.004;24.868;2024-03-08T01:42:45;35.97;;;21.30;;
6531;SDS011;3299;42.004;24.868;2024-03-08T01:45:12;37.60;;;22.67;;
6531;SDS011;3299;42.004;24.868;2024-03-08T01:47:38;36.42;;;21.42;;
6531;SDS011;3299;42.004;24.868;2024-03-08T01:50:04;40.10;;;22.52;;
6531;SDS011;3299;42.004;24.868;2024-03-08T01:52:31;37.92;;;21.48;;
6531;SDS011;3299;42.004;24.868;2024-03-08T01:55:01;35.00;;;20.25;;
6531;SDS011;3299;42.004;24.868;2024-03-08T01:57:28;37.60;;;21.45;;
6531;SDS011;3299;42.004;24.868;2024-03-08T01:59:54;38.40;;;22.35;;
6531;SDS011;3299;42.004;24.868;2024-03-08T02:02:20;36.88;;;22.38;;
6531;SDS011;3299;42.004;24.868;2024-03-08T02:04:47;39.58;;;21.92;;
6531;SDS011;3299;42.004;24.868;2024-03-08T02:07:12;34.13;;;21.02;;
6531;SDS011;3299;42.004;24.868;2024-03-08T02:09:38;31.30;;;20.40;;
6531;SDS011;3299;42.004;24.868;2024-03-08T02:12:04;39.13;;;22.70;;
6531;SDS011;3299;42.004;24.868;2024-03-08T02:14:30;35.15;;;21.58;;
6531;SDS011;3299;42.004;24.868;2024-03-08T02:16:59;36.92;;;23.02;;
6531;SDS011;3299;42.004;24.868;2024-03-08T02:19:25;33.50;;;20.60;;
6531;SDS011;3299;42.004;24.868;2024-03-08T02:21:51;35.05;;;20.75;;
6531;SDS011;3299;42.004;24.868;2024-03-08T02:24:16;31.67;;;20.02;;
6531;SDS011;3299;42.004;24.868;2024-03-08T02:26:41;32.13;;;20.45;;
6531;SDS011;3299;42.004;24.868;2024-03-08T02:29:07;32.45;;;19.38;;
6531;SDS011;3299;42.004;24.868;2024-03-08T02:31:33;35.22;;;20.63;;
6531;SDS011;3299;42.004;24.868;2024-03-08T02:33:59;29.17;;;20.75;;
6531;SDS011;3299;42.004;24.868;2024-03-08T02:36:24;30.83;;;18.95;;
6531;SDS011;3299;42.004;24.868;2024-03-08T02:38:50;30.17;;;18.58;;
6531;SDS011;3299;42.004;24.868;2024-03-08T02:41:15;28.60;;;19.60;;
6531;SDS011;3299;42.004;24.868;2024-03-08T02:43:40;28.00;;;18.90;;
6531;SDS011;3299;42.004;24.868;2024-03-08T02:46:06;28.25;;;18.70;;
6531;SDS011;3299;42.004;24.868;2024-03-08T02:48:31;30.13;;;19.88;;
6531;SDS011;3299;42.004;24.868;2024-03-08T02:50:57;28.95;;;19.75;;
6531;SDS011;3299;42.004;24.868;2024-03-08T02:53:22;31.50;;;20.38;;
6531;SDS011;3299;42.004;24.868;2024-03-08T02:55:49;28.95;;;18.73;;
6531;SDS011;3299;42.004;24.868;2024-03-08T02:58:15;29.45;;;19.17;;
6531;SDS011;3299;42.004;24.868;2024-03-08T03:00:40;27.92;;;17.65;;
6531;SDS011;3299;42.004;24.868;2024-03-08T03:03:06;27.20;;;18.10;;
6531;SDS011;3299;42.004;24.868;2024-03-08T03:05:31;26.98;;;17.55;;
6531;SDS011;3299;42.004;24.868;2024-03-08T03:07:57;31.40;;;18.15;;
6531;SDS011;3299;42.004;24.868;2024-03-08T03:10:23;27.05;;;18.55;;
6531;SDS011;3299;42.004;24.868;2024-03-08T03:12:49;24.83;;;17.27;;
6531;SDS011;3299;42.004;24.868;2024-03-08T03:15:15;26.63;;;18.33;;
6531;SDS011;3299;42.004;24.868;2024-03-08T03:17:47;27.63;;;18.10;;
6531;SDS011;3299;42.004;24.868;2024-03-08T03:20:13;26.23;;;17.40;;
6531;SDS011;3299;42.004;24.868;2024-03-08T03:22:40;27.77;;;17.08;;
6531;SDS011;3299;42.004;24.868;2024-03-08T03:25:06;28.55;;;18.95;;
6531;SDS011;3299;42.004;24.868;2024-03-08T03:27:32;23.58;;;16.13;;
6531;SDS011;3299;42.004;24.868;2024-03-08T03:29:58;24.17;;;16.48;;
6531;SDS011;3299;42.004;24.868;2024-03-08T03:32:44;23.48;;;15.77;;
6531;SDS011;3299;42.004;24.868;2024-03-08T03:35:12;24.23;;;16.25;;
6531;SDS011;3299;42.004;24.868;2024-03-08T03:37:37;22.48;;;15.45;;
6531;SDS011;3299;42.004;24.868;2024-03-08T03:40:05;24.88;;;17.05;;
6531;SDS011;3299;42.004;24.868;2024-03-08T03:42:31;25.77;;;16.92;;
6531;SDS011;3299;42.004;24.868;2024-03-08T03:44:56;22.30;;;15.75;;
6531;SDS011;3299;42.004;24.868;2024-03-08T03:47:21;18.02;;;13.52;;
6531;SDS011;3299;42.004;24.868;2024-03-08T03:49:47;18.65;;;13.55;;
6531;SDS011;3299;42.004;24.868;2024-03-08T03:52:12;22.42;;;14.05;;
6531;SDS011;3299;42.004;24.868;2024-03-08T03:54:37;19.10;;;12.73;;
6531;SDS011;3299;42.004;24.868;2024-03-08T03:57:03;16.02;;;12.55;;
6531;SDS011;3299;42.004;24.868;2024-03-08T03:59:29;21.05;;;14.00;;
6531;SDS011;3299;42.004;24.868;2024-03-08T04:01:55;20.42;;;13.45;;
6531;SDS011;3299;42.004;24.868;2024-03-08T04:04:21;19.20;;;13.75;;
6531;SDS011;3299;42.004;24.868;2024-03-08T04:06:49;20.98;;;13.63;;
6531;SDS011;3299;42.004;24.868;2024-03-08T04:09:16;20.50;;;13.18;;
6531;SDS011;3299;42.004;24.868;2024-03-08T04:11:44;25.60;;;16.55;;
6531;SDS011;3299;42.004;24.868;2024-03-08T04:14:09;26.67;;;16.90;;
6531;SDS011;3299;42.004;24.868;2024-03-08T04:16:35;28.65;;;17.58;;
6531;SDS011;3299;42.004;24.868;2024-03-08T04:19:01;28.17;;;17.05;;
6531;SDS011;3299;42.004;24.868;2024-03-08T04:21:29;31.63;;;19.10;;
6531;SDS011;3299;42.004;24.868;2024-03-08T04:23:55;38.60;;;24.17;;
6531;SDS011;3299;42.004;24.868;2024-03-08T04:26:21;32.60;;;19.63;;
6531;SDS011;3299;42.004;24.868;2024-03-08T04:28:46;36.33;;;22.90;;
6531;SDS011;3299;42.004;24.868;2024-03-08T04:31:12;35.53;;;22.70;;
6531;SDS011;3299;42.004;24.868;2024-03-08T04:33:37;34.72;;;20.00;;
6531;SDS011;3299;42.004;24.868;2024-03-08T04:36:03;30.70;;;18.70;;
6531;SDS011;3299;42.004;24.868;2024-03-08T04:38:29;32.20;;;18.33;;
6531;SDS011;3299;42.004;24.868;2024-03-08T04:40:55;33.95;;;20.05;;
6531;SDS011;3299;42.004;24.868;2024-03-08T04:43:22;29.00;;;17.52;;
6531;SDS011;3299;42.004;24.868;2024-03-08T04:45:50;29.50;;;17.30;;
6531;SDS011;3299;42.004;24.868;2024-03-08T04:48:16;31.92;;;20.67;;
6531;SDS011;3299;42.004;24.868;2024-03-08T04:50:41;35.40;;;20.42;;
6531;SDS011;3299;42.004;24.868;2024-03-08T04:53:07;33.15;;;20.40;;
6531;SDS011;3299;42.004;24.868;2024-03-08T04:55:33;33.28;;;19.98;;
6531;SDS011;3299;42.004;24.868;2024-03-08T04:57:59;29.65;;;19.20;;
6531;SDS011;3299;42.004;24.868;2024-03-08T05:00:24;32.72;;;19.42;;
6531;SDS011;3299;42.004;24.868;2024-03-08T05:02:50;32.92;;;19.25;;
6531;SDS011;3299;42.004;24.868;2024-03-08T05:05:18;44.10;;;26.17;;
6531;SDS011;3299;42.004;24.868;2024-03-08T05:07:43;51.72;;;27.20;;
6531;SDS011;3299;42.004;24.868;2024-03-08T05:10:10;34.63;;;19.33;;
6531;SDS011;3299;42.004;24.868;2024-03-08T05:12:36;48.03;;;26.15;;
6531;SDS011;3299;42.004;24.868;2024-03-08T05:15:03;88.32;;;39.70;;
6531;SDS011;3299;42.004;24.868;2024-03-08T05:17:30;46.05;;;25.77;;
6531;SDS011;3299;42.004;24.868;2024-03-08T05:19:55;31.50;;;19.45;;
6531;SDS011;3299;42.004;24.868;2024-03-08T05:22:21;89.97;;;37.08;;
6531;SDS011;3299;42.004;24.868;2024-03-08T05:24:46;105.55;;;42.60;;
6531;SDS011;3299;42.004;24.868;2024-03-08T05:27:12;148.73;;;58.10;;
6531;SDS011;3299;42.004;24.868;2024-03-08T05:29:38;286.30;;;101.60;;
6531;SDS011;3299;42.004;24.868;2024-03-08T05:32:03;138.88;;;52.20;;
6531;SDS011;3299;42.004;24.868;2024-03-08T05:34:29;202.43;;;73.30;;
6531;SDS011;3299;42.004;24.868;2024-03-08T05:36:55;212.30;;;77.65;;
6531;SDS011;3299;42.004;24.868;2024-03-08T05:39:20;71.70;;;34.75;;
6531;SDS011;3299;42.004;24.868;2024-03-08T05:41:46;111.15;;;43.40;;
6531;SDS011;3299;42.004;24.868;2024-03-08T05:44:12;222.95;;;78.07;;
6531;SDS011;3299;42.004;24.868;2024-03-08T05:46:38;207.95;;;75.60;;
6531;SDS011;3299;42.004;24.868;2024-03-08T05:49:04;146.18;;;51.75;;
6531;SDS011;3299;42.004;24.868;2024-03-08T05:51:31;106.00;;;44.95;;
6531;SDS011;3299;42.004;24.868;2024-03-08T05:53:59;115.00;;;47.22;;
6531;SDS011;3299;42.004;24.868;2024-03-08T05:56:29;69.85;;;33.80;;
6531;SDS011;3299;42.004;24.868;2024-03-08T05:58:55;207.10;;;74.70;;
6531;SDS011;3299;42.004;24.868;2024-03-08T06:01:21;152.75;;;60.10;;
6531;SDS011;3299;42.004;24.868;2024-03-08T06:03:47;182.32;;;66.43;;
6531;SDS011;3299;42.004;24.868;2024-03-08T06:06:14;140.77;;;52.80;;
6531;SDS011;3299;42.004;24.868;2024-03-08T06:08:40;77.32;;;34.33;;
6531;SDS011;3299;42.004;24.868;2024-03-08T06:11:07;61.95;;;28.05;;
6531;SDS011;3299;42.004;24.868;2024-03-08T06:13:33;53.67;;;27.10;;
6531;SDS011;3299;42.004;24.868;2024-03-08T06:15:59;45.53;;;24.08;;
6531;SDS011;3299;42.004;24.868;2024-03-08T06:18:30;41.22;;;22.70;;
6531;SDS011;3299;42.004;24.868;2024-03-08T06:20:58;35.10;;;20.50;;
6531;SDS011;3299;42.004;24.868;2024-03-08T06:23:23;73.22;;;33.10;;
6531;SDS011;3299;42.004;24.868;2024-03-08T06:25:48;46.28;;;24.23;;
6531;SDS011;3299;42.004;24.868;2024-03-08T06:28:14;566.97;;;228.95;;
6531;SDS011;3299;42.004;24.868;2024-03-08T06:30:39;349.13;;;107.20;;
6531;SDS011;3299;42.004;24.868;2024-03-08T06:33:05;266.17;;;86.72;;
6531;SDS011;3299;42.004;24.868;2024-03-08T06:35:32;130.32;;;48.47;;
6531;SDS011;3299;42.004;24.868;2024-03-08T06:37:58;174.35;;;60.92;;
6531;SDS011;3299;42.004;24.868;2024-03-08T06:40:26;141.88;;;44.85;;
6531;SDS011;3299;42.004;24.868;2024-03-08T06:42:54;59.33;;;27.15;;
6531;SDS011;3299;42.004;24.868;2024-03-08T06:45:20;398.77;;;99.93;;
6531;SDS011;3299;42.004;24.868;2024-03-08T06:47:46;281.05;;;65.10;;
6531;SDS011;3299;42.004;24.868;2024-03-08T06:50:13;185.10;;;48.67;;
6531;SDS011;3299;42.004;24.868;2024-03-08T06:52:40;118.40;;;36.05;;
6531;SDS011;3299;42.004;24.868;2024-03-08T06:55:07;470.77;;;113.22;;
6531;SDS011;3299;42.004;24.868;2024-03-08T06:57:36;275.40;;;62.13;;
6531;SDS011;3299;42.004;24.868;2024-03-08T07:00:06;115.93;;;35.47;;
6531;SDS011;3299;42.004;24.868;2024-03-08T07:02:37;306.52;;;69.75;;
6531;SDS011;3299;42.004;24.868;2024-03-08T07:05:04;399.55;;;89.68;;
6531;SDS011;3299;42.004;24.868;2024-03-08T07:07:30;431.88;;;103.43;;
6531;SDS011;3299;42.004;24.868;2024-03-08T07:09:57;161.32;;;45.83;;
6531;SDS011;3299;42.004;24.868;2024-03-08T07:12:22;104.88;;;36.25;;
6531;SDS011;3299;42.004;24.868;2024-03-08T07:14:48;191.70;;;53.15;;
6531;SDS011;3299;42.004;24.868;2024-03-08T07:17:14;136.75;;;39.60;;
6531;SDS011;3299;42.004;24.868;2024-03-08T07:19:39;46.75;;;21.17;;
6531;SDS011;3299;42.004;24.868;2024-03-08T07:22:05;60.55;;;24.90;;
6531;SDS011;3299;42.004;24.868;2024-03-08T07:24:33;221.15;;;63.20;;
6531;SDS011;3299;42.004;24.868;2024-03-08T07:27:02;225.13;;;63.20;;
6531;SDS011;3299;42.004;24.868;2024-03-08T07:29:30;100.38;;;38.55;;
6531;SDS011;3299;42.004;24.868;2024-03-08T07:31:55;91.68;;;34.53;;
6531;SDS011;3299;42.004;24.868;2024-03-08T07:34:27;78.38;;;31.25;;
6531;SDS011;3299;42.004;24.868;2024-03-08T07:36:56;66.82;;;28.55;;
6531;SDS011;3299;42.004;24.868;2024-03-08T07:39:22;64.97;;;28.00;;
6531;SDS011;3299;42.004;24.868;2024-03-08T07:41:48;37.15;;;21.30;;
6531;SDS011;3299;42.004;24.868;2024-03-08T07:44:15;29.70;;;19.92;;
6531;SDS011;3299;42.004;24.868;2024-03-08T07:46:40;90.43;;;36.35;;
6531;SDS011;3299;42.004;24.868;2024-03-08T07:49:07;67.68;;;31.67;;
6531;SDS011;3299;42.004;24.868;2024-03-08T07:51:35;46.50;;;23.80;;
6531;SDS011;3299;42.004;24.868;2024-03-08T07:54:02;46.35;;;22.98;;
6531;SDS011;3299;42.004;24.868;2024-03-08T07:56:29;44.90;;;23.88;;
6531;SDS011;3299;42.004;24.868;2024-03-08T07:58:55;31.05;;;18.60;;
6531;SDS011;3299;42.004;24.868;2024-03-08T08:01:21;36.75;;;19.65;;
6531;SDS011;3299;42.004;24.868;2024-03-08T08:03:46;34.10;;;20.52;;
6531;SDS011;3299;42.004;24.868;2024-03-08T08:06:14;39.20;;;21.83;;
6531;SDS011;3299;42.004;24.868;2024-03-08T08:08:43;53.38;;;25.92;;
6531;SDS011;3299;42.004;24.868;2024-03-08T08:11:09;45.15;;;26.40;;
6531;SDS011;3299;42.004;24.868;2024-03-08T08:13:36;44.03;;;21.98;;
6531;SDS011;3299;42.004;24.868;2024-03-08T08:16:02;51.78;;;28.77;;
6531;SDS011;3299;42.004;24.868;2024-03-08T08:18:29;38.28;;;22.25;;
6531;SDS011;3299;42.004;24.868;2024-03-08T08:20:55;51.67;;;27.60;;
6531;SDS011;3299;42.004;24.868;2024-03-08T08:23:21;56.28;;;28.42;;
6531;SDS011;3299;42.004;24.868;2024-03-08T08:25:46;63.65;;;29.40;;
6531;SDS011;3299;42.004;24.868;2024-03-08T08:28:15;79.10;;;32.80;;
6531;SDS011;3299;42.004;24.868;2024-03-08T08:30:42;76.50;;;30.83;;
6531;SDS011;3299;42.004;24.868;2024-03-08T08:33:08;75.45;;;35.13;;
6531;SDS011;3299;42.004;24.868;2024-03-08T08:35:34;41.95;;;24.63;;
6531;SDS011;3299;42.004;24.868;2024-03-08T08:37:59;62.60;;;27.17;;
6531;SDS011;3299;42.004;24.868;2024-03-08T08:40:25;51.55;;;24.67;;
6531;SDS011;3299;42.004;24.868;2024-03-08T08:42:51;43.03;;;22.85;;
6531;SDS011;3299;42.004;24.868;2024-03-08T08:45:18;45.78;;;25.65;;
6531;SDS011;3299;42.004;24.868;2024-03-08T08:47:44;37.60;;;21.70;;
6531;SDS011;3299;42.004;24.868;2024-03-08T08:50:10;37.78;;;21.25;;
6531;SDS011;3299;42.004;24.868;2024-03-08T08:52:37;35.75;;;20.65;;
6531;SDS011;3299;42.004;24.868;2024-03-08T08:55:04;40.05;;;24.70;;
6531;SDS011;3299;42.004;24.868;2024-03-08T08:57:31;28.55;;;18.95;;
6531;SDS011;3299;42.004;24.868;2024-03-08T08:59:58;28.55;;;18.25;;
6531;SDS011;3299;42.004;24.868;2024-03-08T09:02:23;29.75;;;18.13;;
6531;SDS011;3299;42.004;24.868;2024-03-08T09:04:50;26.80;;;18.20;;
6531;SDS011;3299;42.004;24.868;2024-03-08T09:07:16;28.08;;;18.02;;
6531;SDS011;3299;42.004;24.868;2024-03-08T09:09:43;32.08;;;19.10;;
6531;SDS011;3299;42.004;24.868;2024-03-08T09:12:09;23.95;;;16.55;;
6531;SDS011;3299;42.004;24.868;2024-03-08T09:14:41;24.08;;;14.75;;
6531;SDS011;3299;42.004;24.868;2024-03-08T09:17:07;25.95;;;15.32;;
6531;SDS011;3299;42.004;24.868;2024-03-08T09:19:36;23.17;;;16.00;;
6531;SDS011;3299;42.004;24.868;2024-03-08T09:22:02;26.33;;;16.17;;
6531;SDS011;3299;42.004;24.868;2024-03-08T09:24:29;19.83;;;14.27;;
6531;SDS011;3299;42.004;24.868;2024-03-08T09:26:56;23.75;;;14.45;;
6531;SDS011;3299;42.004;24.868;2024-03-08T09:29:22;20.10;;;11.82;;
6531;SDS011;3299;42.004;24.868;2024-03-08T09:31:48;17.33;;;11.88;;
6531;SDS011;3299;42.004;24.868;2024-03-08T09:34:13;18.30;;;12.48;;
6531;SDS011;3299;42.004;24.868;2024-03-08T09:36:39;17.30;;;12.13;;
6531;SDS011;3299;42.004;24.868;2024-03-08T09:39:06;16.65;;;10.52;;
6531;SDS011;3299;42.004;24.868;2024-03-08T09:41:32;16.75;;;10.73;;
6531;SDS011;3299;42.004;24.868;2024-03-08T09:43:59;13.15;;;10.00;;
6531;SDS011;3299;42.004;24.868;2024-03-08T09:46:25;17.73;;;11.75;;
6531;SDS011;3299;42.004;24.868;2024-03-08T09:48:52;17.58;;;12.07;;
6531;SDS011;3299;42.004;24.868;2024-03-08T09:51:24;13.48;;;10.63;;
6531;SDS011;3299;42.004;24.868;2024-03-08T09:53:53;12.52;;;9.23;;
6531;SDS011;3299;42.004;24.868;2024-03-08T09:56:19;13.20;;;8.98;;
6531;SDS011;3299;42.004;24.868;2024-03-08T09:58:45;17.10;;;10.82;;
6531;SDS011;3299;42.004;24.868;2024-03-08T10:01:36;11.35;;;9.02;;
6531;SDS011;3299;42.004;24.868;2024-03-08T10:04:04;11.32;;;8.93;;
6531;SDS011;3299;42.004;24.868;2024-03-08T10:06:29;11.48;;;8.75;;
6531;SDS011;3299;42.004;24.868;2024-03-08T10:08:56;12.13;;;8.60;;
6531;SDS011;3299;42.004;24.868;2024-03-08T10:11:22;14.98;;;9.18;;
6531;SDS011;3299;42.004;24.868;2024-03-08T10:13:48;11.85;;;8.80;;
6531;SDS011;3299;42.004;24.868;2024-03-08T10:16:15;12.57;;;9.55;;
6531;SDS011;3299;42.004;24.868;2024-03-08T10:18:42;12.98;;;9.25;;
6531;SDS011;3299;42.004;24.868;2024-03-08T10:21:08;10.73;;;8.32;;
6531;SDS011;3299;42.004;24.868;2024-03-08T10:23:35;10.50;;;8.25;;
6531;SDS011;3299;42.004;24.868;2024-03-08T10:26:19;9.48;;;8.18;;
6531;SDS011;3299;42.004;24.868;2024-03-08T10:28:47;11.73;;;8.77;;
6531;SDS011;3299;42.004;24.868;2024-03-08T10:31:14;14.45;;;10.60;;
6531;SDS011;3299;42.004;24.868;2024-03-08T10:33:40;14.38;;;10.85;;
6531;SDS011;3299;42.004;24.868;2024-03-08T10:36:09;15.80;;;11.13;;
6531;SDS011;3299;42.004;24.868;2024-03-08T10:38:35;15.07;;;10.10;;
6531;SDS011;3299;42.004;24.868;2024-03-08T10:41:03;10.32;;;8.05;;
6531;SDS011;3299;42.004;24.868;2024-03-08T10:43:31;11.15;;;8.15;;
6531;SDS011;3299;42.004;24.868;2024-03-08T10:46:14;11.20;;;8.32;;
6531;SDS011;3299;42.004;24.868;2024-03-08T10:48:50;14.23;;;10.45;;
6531;SDS011;3299;42.004;24.868;2024-03-08T10:51:17;14.77;;;11.60;;
6531;SDS011;3299;42.004;24.868;2024-03-08T10:53:44;14.75;;;11.10;;
6531;SDS011;3299;42.004;24.868;2024-03-08T10:56:13;13.27;;;9.25;;
6531;SDS011;3299;42.004;24.868;2024-03-08T10:58:39;15.18;;;11.43;;
6531;SDS011;3299;42.004;24.868;2024-03-08T11:01:06;17.00;;;11.93;;
6531;SDS011;3299;42.004;24.868;2024-03-08T11:08:48;16.75;;;12.95;;
6531;SDS011;3299;42.004;24.868;2024-03-08T11:11:31;14.35;;;11.80;;
6531;SDS011;3299;42.004;24.868;2024-03-08T11:13:59;18.38;;;11.63;;
6531;SDS011;3299;42.004;24.868;2024-03-08T11:18:55;12.32;;;10.25;;
6531;SDS011;3299;42.004;24.868;2024-03-08T11:21:29;31.17;;;16.17;;
6531;SDS011;3299;42.004;24.868;2024-03-08T11:24:02;22.85;;;12.68;;
6531;SDS011;3299;42.004;24.868;2024-03-08T11:26:32;13.65;;;9.98;;
6531;SDS011;3299;42.004;24.868;2024-03-08T11:32:07;13.38;;;9.93;;
6531;SDS011;3299;42.004;24.868;2024-03-08T11:34:47;12.25;;;9.88;;
6531;SDS011;3299;42.004;24.868;2024-03-08T11:37:17;14.70;;;10.20;;
6531;SDS011;3299;42.004;24.868;2024-03-08T11:39:46;17.23;;;10.75;;
6531;SDS011;3299;42.004;24.868;2024-03-08T11:42:13;17.48;;;11.82;;
6531;SDS011;3299;42.004;24.868;2024-03-08T11:44:40;13.52;;;10.55;;
6531;SDS011;3299;42.004;24.868;2024-03-08T11:47:09;17.88;;;11.50;;
6531;SDS011;3299;42.004;24.868;2024-03-08T11:49:35;16.48;;;11.88;;
6531;SDS011;3299;42.004;24.868;2024-03-08T11:52:01;15.57;;;11.55;;
6531;SDS011;3299;42.004;24.868;2024-03-08T11:54:28;15.30;;;11.10;;
6531;SDS011;3299;42.004;24.868;2024-03-08T11:56:55;13.48;;;10.48;;
6531;SDS011;3299;42.004;24.868;2024-03-08T11:59:27;16.67;;;10.27;;
6531;SDS011;3299;42.004;24.868;2024-03-08T12:02:03;17.70;;;11.55;;
6531;SDS011;3299;42.004;24.868;2024-03-08T12:04:30;18.02;;;13.45;;
6531;SDS011;3299;42.004;24.868;2024-03-08T12:06:57;18.45;;;14.27;;
6531;SDS011;3299;42.004;24.868;2024-03-08T12:09:26;21.65;;;14.63;;
6531;SDS011;3299;42.004;24.868;2024-03-08T12:11:51;17.88;;;14.18;;
6531;SDS011;3299;42.004;24.868;2024-03-08T12:14:17;24.65;;;13.75;;
6531;SDS011;3299;42.004;24.868;2024-03-08T12:16:43;16.90;;;12.98;;
6531;SDS011;3299;42.004;24.868;2024-03-08T12:19:09;11.95;;;9.77;;
6531;SDS011;3299;42.004;24.868;2024-03-08T12:21:35;15.30;;;10.25;;
6531;SDS011;3299;42.004;24.868;2024-03-08T12:24:09;12.50;;;8.50;;
6531;SDS011;3299;42.004;24.868;2024-03-08T12:26:37;13.93;;;8.82;;
6531;SDS011;3299;42.004;24.868;2024-03-08T12:29:20;12.05;;;8.75;;
6531;SDS011;3299;42.004;24.868;2024-03-08T12:31:48;11.20;;;9.30;;
6531;SDS011;3299;42.004;24.868;2024-03-08T12:34:16;12.20;;;9.10;;
6531;SDS011;3299;42.004;24.868;2024-03-08T12:36:49;13.32;;;9.27;;
6531;SDS011;3299;42.004;24.868;2024-03-08T12:39:19;14.50;;;10.07;;
6531;SDS011;3299;42.004;24.868;2024-03-08T12:41:47;13.13;;;9.73;;
6531;SDS011;3299;42.004;24.868;2024-03-08T12:44:14;17.60;;;10.75;;
6531;SDS011;3299;42.004;24.868;2024-03-08T12:46:39;11.30;;;7.78;;
6531;SDS011;3299;42.004;24.868;2024-03-08T12:49:08;8.30;;;7.45;;
6531;SDS011;3299;42.004;24.868;2024-03-08T12:51:34;8.95;;;7.50;;
6531;SDS011;3299;42.004;24.868;2024-03-08T12:54:00;7.78;;;7.00;;
6531;SDS011;3299;42.004;24.868;2024-03-08T12:56:29;8.32;;;6.65;;
6531;SDS011;3299;42.004;24.868;2024-03-08T12:58:59;7.63;;;6.75;;
6531;SDS011;3299;42.004;24.868;2024-03-08T13:01:25;8.90;;;6.90;;
6531;SDS011;3299;42.004;24.868;2024-03-08T13:03:51;10.55;;;7.65;;
6531;SDS011;3299;42.004;24.868;2024-03-08T13:06:17;7.07;;;6.38;;
6531;SDS011;3299;42.004;24.868;2024-03-08T13:08:44;8.80;;;6.68;;
6531;SDS011;3299;42.004;24.868;2024-03-08T13:11:10;7.80;;;6.13;;
6531;SDS011;3299;42.004;24.868;2024-03-08T13:13:42;11.30;;;8.32;;
6531;SDS011;3299;42.004;24.868;2024-03-08T13:16:09;8.20;;;5.97;;
6531;SDS011;3299;42.004;24.868;2024-03-08T13:18:37;8.40;;;7.10;;
6531;SDS011;3299;42.004;24.868;2024-03-08T13:21:03;14.73;;;10.73;;
6531;SDS011;3299;42.004;24.868;2024-03-08T13:23:34;8.90;;;6.28;;
6531;SDS011;3299;42.004;24.868;2024-03-08T13:26:10;8.88;;;6.85;;
6531;SDS011;3299;42.004;24.868;2024-03-08T13:28:45;13.00;;;9.48;;
6531;SDS011;3299;42.004;24.868;2024-03-08T13:31:13;9.55;;;8.45;;
6531;SDS011;3299;42.004;24.868;2024-03-08T13:33:40;8.23;;;7.22;;
6531;SDS011;3299;42.004;24.868;2024-03-08T13:36:07;8.95;;;8.05;;
6531;SDS011;3299;42.004;24.868;2024-03-08T13:38:39;13.20;;;7.80;;
6531;SDS011;3299;42.004;24.868;2024-03-08T13:41:07;7.97;;;6.68;;
6531;SDS011;3299;42.004;24.868;2024-03-08T13:43:33;12.55;;;8.63;;
6531;SDS011;3299;42.004;24.868;2024-03-08T13:45:59;14.63;;;9.77;;
6531;SDS011;3299;42.004;24.868;2024-03-08T13:48:24;12.27;;;8.90;;
6531;SDS011;3299;42.004;24.868;2024-03-08T13:50:50;10.23;;;7.63;;
6531;SDS011;3299;42.004;24.868;2024-03-08T13:53:16;12.48;;;8.93;;
6531;SDS011;3299;42.004;24.868;2024-03-08T13:55:42;9.32;;;7.28;;
6531;SDS011;3299;42.004;24.868;2024-03-08T13:58:07;12.25;;;8.20;;
6531;SDS011;3299;42.004;24.868;2024-03-08T14:00:38;10.85;;;8.82;;
6531;SDS011;3299;42.004;24.868;2024-03-08T14:03:06;8.30;;;7.43;;
6531;SDS011;3299;42.004;24.868;2024-03-08T14:05:32;11.05;;;7.95;;
6531;SDS011;3299;42.004;24.868;2024-03-08T14:08:01;11.70;;;9.35;;
6531;SDS011;3299;42.004;24.868;2024-03-08T14:10:32;11.65;;;9.68;;
6531;SDS011;3299;42.004;24.868;2024-03-08T14:12:57;11.10;;;8.60;;
6531;SDS011;3299;42.004;24.868;2024-03-08T14:15:23;9.95;;;8.95;;
6531;SDS011;3299;42.004;24.868;2024-03-08T14:17:53;13.13;;;8.05;;
6531;SDS011;3299;42.004;24.868;2024-03-08T14:20:19;13.07;;;9.40;;
6531;SDS011;3299;42.004;24.868;2024-03-08T14:22:44;16.02;;;9.65;;
6531;SDS011;3299;42.004;24.868;2024-03-08T14:25:11;12.48;;;9.73;;
6531;SDS011;3299;42.004;24.868;2024-03-08T14:27:42;11.32;;;8.45;;
6531;SDS011;3299;42.004;24.868;2024-03-08T14:30:12;10.13;;;8.30;;
6531;SDS011;3299;42.004;24.868;2024-03-08T14:32:38;15.60;;;9.80;;
6531;SDS011;3299;42.004;24.868;2024-03-08T14:35:04;14.27;;;10.15;;
6531;SDS011;3299;42.004;24.868;2024-03-08T14:37:30;16.13;;;10.20;;
6531;SDS011;3299;42.004;24.868;2024-03-08T14:39:56;13.85;;;10.40;;
6531;SDS011;3299;42.004;24.868;2024-03-08T14:42:22;15.85;;;12.25;;
6531;SDS011;3299;42.004;24.868;2024-03-08T14:44:47;16.10;;;11.23;;